createdAt,value
2022-08-28T00:01:30.319Z,51.73
2022-08-28T00:04:00.910Z,52.01
2022-08-28T00:06:30.467Z,51.79
2022-08-28T00:08:59.895Z,51.76
2022-08-28T00:11:31.946Z,51.99
2022-08-28T00:14:02.940Z,51.56
2022-08-28T00:16:32.733Z,51.70
2022-08-28T00:19:02.321Z,51.87
2022-08-28T00:21:32.253Z,51.92
2022-08-28T00:24:01.821Z,52.01
2022-08-28T00:26:46.401Z,52.15
2022-08-28T00:29:15.834Z,51.44
2022-08-28T00:31:45.534Z,51.19
2022-08-28T00:34:15.042Z,51.16
2022-08-28T00:36:44.487Z,51.37
2022-08-28T00:39:13.937Z,51.21
2022-08-28T00:41:50.354Z,51.01
2022-08-28T00:44:27.369Z,51.00
2022-08-28T00:46:57.657Z,51.34
2022-08-28T00:49:29.025Z,51.08
2022-08-28T00:52:11.784Z,51.16
2022-08-28T00:54:59.683Z,51.21
2022-08-28T00:57:33.795Z,51.36
2022-08-28T01:00:03.262Z,51.75
2022-08-28T01:02:32.778Z,51.35
2022-08-28T01:05:02.252Z,51.56
2022-08-28T01:07:31.806Z,51.37
2022-08-28T01:10:01.250Z,50.95
2022-08-28T01:12:33.322Z,51.38
2022-08-28T01:15:03.746Z,51.36
2022-08-28T01:17:35.177Z,51.49
2022-08-28T01:20:09.338Z,51.58
2022-08-28T01:22:40.467Z,51.48
2022-08-28T01:25:13.937Z,51.51
2022-08-28T01:27:44.106Z,51.58
2022-08-28T01:30:15.444Z,51.44
2022-08-28T01:32:47.272Z,51.58
2022-08-28T01:35:18.293Z,51.28
2022-08-28T01:37:47.504Z,51.43
2022-08-28T01:40:23.111Z,51.15
2022-08-28T01:42:52.952Z,51.23
2022-08-28T01:45:22.994Z,51.23
2022-08-28T01:47:52.487Z,51.67
2022-08-28T01:50:23.054Z,51.66
2022-08-28T01:52:52.501Z,51.79
2022-08-28T01:55:24.526Z,51.44
2022-08-28T01:57:56.525Z,51.61
2022-08-28T02:00:27.647Z,51.83
2022-08-28T02:02:58.373Z,51.71
2022-08-28T02:05:28.407Z,51.24
2022-08-28T02:07:57.837Z,51.42
2022-08-28T02:10:31.102Z,51.63
2022-08-28T02:13:00.848Z,51.93
2022-08-28T02:15:31.033Z,51.76
2022-08-28T02:18:00.566Z,52.03
2022-08-28T02:20:30.479Z,51.86
2022-08-28T02:23:00.438Z,51.83
2022-08-28T02:25:32.615Z,51.54
2022-08-28T02:28:02.077Z,51.20
2022-08-28T02:30:31.643Z,51.09
2022-08-28T02:33:01.249Z,51.27
2022-08-28T02:35:31.305Z,51.65
2022-08-28T02:38:01.093Z,51.57
2022-08-28T02:40:33.234Z,51.73
2022-08-28T02:43:02.884Z,51.42
2022-08-28T02:45:32.768Z,51.25
2022-08-28T02:48:02.223Z,50.89
2022-08-28T02:50:32.538Z,50.68
2022-08-28T02:53:02.035Z,50.96
2022-08-28T02:55:34.433Z,51.26
2022-08-28T02:58:03.865Z,51.57
2022-08-28T03:00:33.909Z,51.68
2022-08-28T03:03:03.728Z,51.72
2022-08-28T03:05:33.196Z,51.79
2022-08-28T03:08:02.752Z,52.10
2022-08-28T03:10:35.162Z,52.25
2022-08-28T03:13:04.657Z,52.17
2022-08-28T03:15:34.344Z,51.76
2022-08-28T03:18:07.903Z,52.12
2022-08-28T03:20:37.745Z,51.41
2022-08-28T03:23:21.945Z,51.55
2022-08-28T03:25:54.043Z,51.89
2022-08-28T03:28:23.488Z,51.69
2022-08-28T03:30:53.304Z,51.93
2022-08-28T03:33:22.820Z,52.09
2022-08-28T03:35:52.376Z,52.52
2022-08-28T03:38:22.267Z,51.99
2022-08-28T03:40:57.610Z,52.17
2022-08-28T03:43:27.430Z,52.74
2022-08-28T03:45:58.231Z,52.44
2022-08-28T03:48:28.577Z,52.59
2022-08-28T03:50:58.085Z,52.07
2022-08-28T03:53:29.109Z,52.54
2022-08-28T03:56:00.906Z,52.57
2022-08-28T03:58:30.536Z,52.32
2022-08-28T04:01:00.396Z,52.71
2022-08-28T04:03:30.036Z,52.69
2022-08-28T04:05:59.509Z,52.51
2022-08-28T04:08:29.371Z,52.54
2022-08-28T04:11:01.722Z,52.31
2022-08-28T04:13:32.173Z,52.33
2022-08-28T04:16:02.589Z,52.34
2022-08-28T04:18:36.069Z,52.35
2022-08-28T04:21:08.007Z,52.48
2022-08-28T04:23:38.343Z,52.39
2022-08-28T04:26:10.466Z,52.25
2022-08-28T04:28:39.997Z,52.51
2022-08-28T04:31:10.391Z,52.58
2022-08-28T04:33:39.935Z,52.41
2022-08-28T04:36:11.184Z,52.17
2022-08-28T04:38:43.932Z,52.42
2022-08-28T04:41:18.855Z,52.17
2022-08-28T04:43:48.663Z,52.15
2022-08-28T04:46:18.240Z,52.04
2022-08-28T04:48:47.724Z,52.59
2022-08-28T04:51:17.694Z,52.16
2022-08-28T04:53:47.202Z,51.92
2022-08-28T04:56:22.090Z,51.56
2022-08-28T04:58:51.540Z,51.88
2022-08-28T05:01:24.307Z,51.89
2022-08-28T05:03:57.617Z,51.62
2022-08-28T05:06:28.806Z,51.51
2022-08-28T05:08:58.895Z,51.79
2022-08-28T05:11:34.156Z,51.56
2022-08-28T05:14:04.639Z,50.89
2022-08-28T05:16:34.812Z,50.70
2022-08-28T05:19:04.517Z,50.57
2022-08-28T05:21:33.963Z,50.90
2022-08-28T05:24:03.409Z,50.54
2022-08-28T05:26:35.476Z,50.59
2022-08-28T05:29:08.466Z,50.34
2022-08-28T05:31:39.115Z,50.69
2022-08-28T05:34:10.397Z,50.21
2022-08-28T05:36:40.418Z,50.05
2022-08-28T05:39:12.049Z,49.80
2022-08-28T05:41:45.870Z,49.76
2022-08-28T05:44:16.636Z,49.95
2022-08-28T05:46:48.112Z,48.94
2022-08-28T05:49:17.911Z,49.35
2022-08-28T05:51:47.490Z,48.77
2022-08-28T05:54:17.630Z,48.87
2022-08-28T05:56:49.633Z,48.36
2022-08-28T05:59:19.183Z,49.05
2022-08-28T06:01:49.868Z,49.19
2022-08-28T06:04:23.562Z,49.24
2022-08-28T06:06:53.126Z,49.19
2022-08-28T06:09:28.736Z,48.55
2022-08-28T06:12:03.727Z,48.55
2022-08-28T06:14:33.505Z,48.42
2022-08-28T06:17:04.034Z,47.99
2022-08-28T06:19:37.240Z,47.83
2022-08-28T06:22:09.724Z,47.77
2022-08-28T06:24:39.793Z,47.31
2022-08-28T06:27:11.794Z,47.67
2022-08-28T06:29:41.479Z,47.85
2022-08-28T06:32:10.964Z,47.45
2022-08-28T06:34:40.409Z,46.87
2022-08-28T06:37:10.313Z,46.86
2022-08-28T06:39:39.933Z,46.84
2022-08-28T06:42:11.954Z,46.59
2022-08-28T06:44:41.404Z,46.52
2022-08-28T06:47:11.189Z,46.68
2022-08-28T06:49:41.537Z,46.55
2022-08-28T06:52:10.939Z,46.12
2022-08-28T06:54:40.361Z,45.79
2022-08-28T06:57:17.812Z,45.58
2022-08-28T06:59:47.678Z,44.81
2022-08-28T07:02:17.197Z,44.02
2022-08-28T07:04:46.729Z,43.83
2022-08-28T07:07:31.046Z,44.12
2022-08-28T07:10:01.769Z,43.21
2022-08-28T07:12:33.756Z,43.71
2022-08-28T07:15:04.162Z,44.03
2022-08-28T07:17:41.751Z,43.24
2022-08-28T07:20:12.497Z,43.52
2022-08-28T07:22:42.715Z,43.35
2022-08-28T07:25:12.690Z,42.59
2022-08-28T07:27:44.695Z,42.29
2022-08-28T07:30:15.012Z,42.44
2022-08-28T07:32:49.170Z,41.96
2022-08-28T07:35:19.156Z,41.64
2022-08-28T07:37:49.123Z,41.64
2022-08-28T07:40:20.237Z,41.95
2022-08-28T07:43:04.784Z,42.00
2022-08-28T07:45:34.688Z,41.89
2022-08-28T07:48:11.441Z,42.28
2022-08-28T07:50:41.455Z,42.33
2022-08-28T07:53:11.145Z,42.64
2022-08-28T07:55:40.588Z,41.73
2022-08-28T07:58:12.876Z,41.36
2022-08-28T08:00:42.452Z,41.69
2022-08-28T08:03:11.939Z,41.03
2022-08-28T08:05:41.432Z,40.69
2022-08-28T08:08:10.850Z,40.71
2022-08-28T08:10:40.294Z,40.56
2022-08-28T08:13:14.205Z,40.68
2022-08-28T08:15:43.726Z,40.51
2022-08-28T08:18:13.680Z,39.95
2022-08-28T08:20:43.256Z,39.45
2022-08-28T08:23:12.664Z,38.33
2022-08-28T08:25:42.137Z,36.69
2022-08-28T08:28:15.673Z,36.62
2022-08-28T08:30:45.241Z,36.34
2022-08-28T08:33:14.734Z,36.57
2022-08-28T08:35:44.436Z,36.45
2022-08-28T08:38:14.024Z,36.72
2022-08-28T08:40:43.646Z,36.27
2022-08-28T08:43:16.069Z,36.12
2022-08-28T08:45:45.759Z,36.13
2022-08-28T08:48:15.352Z,35.69
2022-08-28T08:50:44.948Z,35.52
2022-08-28T08:53:24.220Z,34.22
2022-08-28T08:55:54.356Z,33.69
2022-08-28T08:58:28.333Z,32.56
2022-08-28T09:01:01.372Z,32.81
2022-08-28T09:03:44.126Z,33.26
2022-08-28T09:06:18.744Z,33.30
2022-08-28T09:08:50.289Z,34.05
2022-08-28T09:11:26.421Z,35.64
2022-08-28T09:14:02.666Z,35.38
2022-08-28T09:16:33.812Z,34.55
2022-08-28T09:19:03.216Z,33.12
2022-08-28T09:21:33.736Z,33.06
2022-08-28T09:24:05.860Z,32.87
2022-08-28T09:26:40.369Z,32.12
2022-08-28T09:29:29.443Z,33.49
2022-08-28T09:31:58.900Z,33.41
2022-08-28T09:34:35.460Z,34.02
2022-08-28T09:37:08.353Z,33.14
2022-08-28T09:39:38.548Z,32.76
2022-08-28T09:42:29.893Z,33.16
2022-08-28T09:45:09.060Z,32.43
2022-08-28T09:47:48.787Z,32.09
2022-08-28T09:50:23.556Z,31.02
2022-08-28T09:52:53.160Z,30.25
2022-08-28T09:55:24.496Z,30.63
2022-08-28T09:57:54.442Z,29.54
2022-08-28T10:00:26.621Z,30.06
2022-08-28T10:02:58.717Z,29.47
2022-08-28T10:05:36.217Z,29.22
2022-08-28T10:08:08.094Z,28.79
2022-08-28T10:10:39.420Z,28.45
2022-08-28T10:13:11.879Z,27.09
2022-08-28T10:15:55.506Z,27.73
2022-08-28T10:18:34.119Z,27.75
2022-08-28T10:21:07.025Z,29.85
2022-08-28T10:23:41.497Z,31.62
2022-08-28T10:26:21.490Z,31.75
2022-08-28T10:28:56.623Z,32.13
2022-08-28T10:31:32.839Z,32.81
2022-08-28T10:34:12.197Z,32.65
2022-08-28T10:36:41.654Z,33.01
2022-08-28T10:39:18.759Z,32.50
2022-08-28T10:41:49.529Z,32.90
2022-08-28T10:44:20.750Z,33.10
2022-08-28T10:46:55.616Z,32.17
2022-08-28T10:49:27.616Z,33.01
2022-08-28T10:51:58.028Z,34.36
2022-08-28T10:54:31.200Z,33.35
2022-08-28T10:57:02.900Z,32.85
2022-08-28T10:59:42.065Z,33.00
2022-08-28T11:02:14.579Z,31.50
2022-08-28T11:04:44.044Z,31.98
2022-08-28T11:07:15.428Z,30.15
2022-08-28T11:09:47.799Z,29.19
2022-08-28T11:12:39.088Z,27.74
2022-08-28T11:15:38.543Z,28.93
2022-08-28T11:18:37.928Z,28.75
2022-08-28T11:21:09.790Z,27.85
2022-08-28T11:23:41.164Z,27.51
2022-08-28T11:26:12.445Z,28.17
2022-08-28T11:28:47.439Z,27.29
2022-08-28T11:31:38.062Z,26.81
2022-08-28T11:34:10.117Z,27.62
2022-08-28T11:37:04.409Z,27.66
2022-08-28T11:39:33.878Z,28.79
2022-08-28T11:42:32.878Z,28.94
2022-08-28T11:45:02.715Z,30.07
2022-08-28T11:47:52.142Z,30.67
2022-08-28T11:50:27.309Z,30.47
2022-08-28T11:53:22.224Z,30.46
2022-08-28T11:56:31.024Z,29.89
2022-08-28T11:59:07.968Z,29.26
2022-08-28T12:01:40.357Z,29.46
2022-08-28T12:04:12.346Z,28.95
2022-08-28T12:06:52.003Z,28.76
2022-08-28T12:09:40.416Z,28.89
2022-08-28T12:12:28.754Z,27.94
2022-08-28T12:15:02.184Z,28.07
2022-08-28T12:17:43.840Z,27.41
2022-08-28T12:20:14.522Z,26.84
2022-08-28T12:22:48.011Z,26.15
2022-08-28T12:25:24.661Z,25.60
2022-08-28T12:27:54.340Z,25.77
2022-08-28T12:30:32.092Z,25.66
2022-08-28T12:33:06.186Z,25.63
2022-08-28T12:35:35.656Z,26.16
2022-08-28T12:38:09.339Z,26.34
2022-08-28T12:40:51.182Z,26.07
2022-08-28T12:43:31.093Z,26.73
2022-08-28T12:46:01.611Z,26.29
2022-08-28T12:48:31.713Z,26.85
2022-08-28T12:51:03.417Z,26.66
2022-08-28T12:53:42.739Z,26.18
2022-08-28T12:56:13.131Z,26.83
2022-08-28T12:58:43.057Z,27.86
2022-08-28T13:01:13.653Z,28.20
2022-08-28T13:03:51.505Z,27.44
2022-08-28T13:06:26.243Z,27.37
2022-08-28T13:09:02.507Z,27.23
2022-08-28T13:11:32.516Z,26.65
2022-08-28T13:14:02.214Z,26.81
2022-08-28T13:16:39.866Z,26.32
2022-08-28T13:19:24.065Z,26.33
2022-08-28T13:21:58.587Z,26.67
2022-08-28T13:24:41.113Z,27.42
2022-08-28T13:27:19.057Z,26.99
2022-08-28T13:30:05.428Z,27.16
2022-08-28T13:32:36.157Z,27.98
2022-08-28T13:35:09.924Z,28.01
2022-08-28T13:37:47.748Z,28.19
2022-08-28T13:43:12.074Z,27.88
2022-08-28T13:45:44.285Z,27.73
2022-08-28T13:48:14.497Z,27.18
2022-08-28T13:50:46.879Z,27.19
2022-08-28T13:53:16.976Z,26.91
2022-08-28T13:55:50.351Z,26.64
2022-08-28T13:58:20.018Z,26.62
2022-08-28T14:00:51.103Z,26.37
2022-08-28T14:03:33.292Z,26.49
2022-08-28T14:06:02.875Z,26.55
2022-08-28T14:08:32.347Z,26.27
2022-08-28T14:11:04.436Z,26.54
2022-08-28T14:13:33.969Z,26.58
2022-08-28T14:16:06.689Z,25.61
2022-08-28T14:18:36.225Z,25.39
2022-08-28T14:21:07.616Z,26.28
2022-08-28T14:23:37.087Z,26.27
2022-08-28T14:26:09.559Z,26.13
2022-08-28T14:28:38.989Z,25.90
2022-08-28T14:31:13.693Z,26.99
2022-08-28T14:33:45.253Z,26.86
2022-08-28T14:36:17.960Z,26.52
2022-08-28T14:38:47.376Z,26.18
2022-08-28T14:41:19.781Z,25.88
2022-08-28T14:43:49.668Z,25.00
2022-08-28T14:46:19.483Z,24.61
2022-08-28T14:48:48.990Z,24.76
2022-08-28T14:51:18.529Z,25.15
2022-08-28T14:53:47.962Z,25.28
2022-08-28T14:56:20.072Z,25.07
2022-08-28T14:58:49.488Z,24.54
2022-08-28T15:01:26.048Z,24.46
2022-08-28T15:04:09.865Z,24.46
2022-08-28T15:06:39.454Z,24.52
2022-08-28T15:09:08.893Z,23.98
2022-08-28T15:11:41.176Z,24.67
2022-08-28T15:14:10.614Z,24.10
2022-08-28T15:16:43.072Z,24.33
2022-08-28T15:19:13.233Z,24.16
2022-08-28T15:21:44.535Z,23.98
2022-08-28T15:24:13.968Z,24.00
2022-08-28T15:26:46.910Z,24.26
2022-08-28T15:29:16.588Z,24.22
2022-08-28T15:31:48.073Z,24.13
2022-08-28T15:34:18.661Z,23.48
2022-08-28T15:36:52.847Z,24.21
2022-08-28T15:39:37.944Z,23.76
2022-08-28T15:42:10.412Z,23.82
2022-08-28T15:44:39.853Z,24.27
2022-08-28T15:47:09.860Z,24.55
2022-08-28T15:49:48.648Z,24.22
2022-08-28T15:52:19.882Z,24.32
2022-08-28T15:54:49.599Z,24.03
2022-08-28T15:57:21.617Z,24.56
2022-08-28T15:59:51.365Z,24.13
2022-08-28T16:02:21.634Z,24.89
2022-08-28T16:04:51.189Z,24.53
2022-08-28T16:07:20.736Z,24.66
2022-08-28T16:09:50.236Z,25.15
2022-08-28T16:12:22.953Z,24.83
2022-08-28T16:14:52.673Z,24.87
2022-08-28T16:17:22.108Z,25.27
2022-08-28T16:19:51.508Z,25.32
2022-08-28T16:22:20.936Z,25.58
2022-08-28T16:24:50.781Z,25.18
2022-08-28T16:27:22.788Z,24.82
2022-08-28T16:29:52.753Z,24.55
2022-08-28T16:32:23.037Z,24.65
2022-08-28T16:34:52.809Z,24.85
2022-08-28T16:37:23.202Z,24.96
2022-08-28T16:39:56.050Z,25.09
2022-08-28T16:42:32.664Z,25.48
2022-08-28T16:45:03.513Z,25.85
2022-08-28T16:47:33.080Z,25.68
2022-08-28T16:50:02.861Z,25.10
2022-08-28T16:52:32.294Z,25.32
2022-08-28T16:55:02.414Z,25.06
2022-08-28T16:57:34.437Z,25.44
2022-08-28T17:00:03.881Z,25.85
2022-08-28T17:02:33.965Z,25.78
2022-08-28T17:05:05.440Z,25.87
2022-08-28T17:07:35.042Z,25.60
2022-08-28T17:10:04.534Z,25.91
2022-08-28T17:12:36.701Z,25.94
2022-08-28T17:15:06.888Z,26.10
2022-08-28T17:17:36.370Z,25.82
2022-08-28T17:20:07.819Z,26.04
2022-08-28T17:22:34.773Z,26.01
2022-08-28T17:25:04.557Z,26.25
2022-08-28T17:27:36.831Z,26.26
2022-08-28T17:30:07.200Z,26.24
2022-08-28T17:32:37.030Z,26.78
2022-08-28T17:35:07.101Z,26.59
2022-08-28T17:37:36.530Z,26.70
2022-08-28T17:40:06.539Z,26.56
2022-08-28T17:42:38.892Z,26.92
2022-08-28T17:45:11.337Z,26.52
2022-08-28T17:47:40.537Z,26.16
2022-08-28T17:50:11.027Z,26.39
2022-08-28T17:52:40.604Z,26.58
2022-08-28T17:55:10.757Z,26.86
2022-08-28T17:57:42.769Z,26.24
2022-08-28T18:00:16.171Z,28.26
2022-08-28T18:02:46.308Z,28.75
2022-08-28T18:05:16.737Z,28.97
2022-08-28T18:07:46.197Z,27.15
2022-08-28T18:10:15.680Z,27.17
2022-08-28T18:12:47.853Z,27.52
2022-08-28T18:15:17.468Z,29.17
2022-08-28T18:17:50.470Z,28.64
2022-08-28T18:20:20.217Z,28.70
2022-08-28T18:22:49.742Z,27.89
2022-08-28T18:25:31.490Z,28.15
2022-08-28T18:28:03.575Z,27.87
2022-08-28T18:30:32.995Z,28.66
2022-08-28T18:33:02.521Z,28.07
2022-08-28T18:35:32.462Z,28.21
2022-08-28T18:38:02.007Z,27.37
2022-08-28T18:40:31.563Z,27.57
2022-08-28T18:43:03.749Z,27.28
2022-08-28T18:45:34.157Z,27.82
2022-08-28T18:48:03.918Z,28.40
2022-08-28T18:50:33.616Z,28.47
2022-08-28T18:53:03.723Z,27.66
2022-08-28T18:55:33.421Z,28.88
2022-08-28T18:58:05.464Z,28.14
2022-08-28T19:00:36.680Z,28.82
2022-08-28T19:03:06.327Z,27.71
2022-08-28T19:05:35.886Z,27.92
2022-08-28T19:08:05.422Z,28.66
2022-08-28T19:10:35.354Z,28.31
2022-08-28T19:13:07.652Z,28.86
2022-08-28T19:15:37.378Z,28.13
2022-08-28T19:18:07.230Z,27.97
2022-08-28T19:20:36.800Z,28.96
2022-08-28T19:23:06.254Z,28.12
2022-08-28T19:25:35.957Z,28.32
2022-08-28T19:28:08.040Z,28.79
2022-08-28T19:30:37.608Z,28.42
2022-08-28T19:33:07.490Z,28.51
2022-08-28T19:35:36.953Z,28.69
2022-08-28T19:38:06.360Z,28.59
2022-08-28T19:40:38.823Z,29.20
2022-08-28T19:43:12.645Z,29.33
2022-08-28T19:45:46.792Z,30.31
2022-08-28T19:48:16.245Z,31.20
2022-08-28T19:50:45.669Z,31.69
2022-08-28T19:53:15.449Z,31.73
2022-08-28T19:55:44.859Z,31.66
2022-08-28T19:58:16.875Z,31.22
2022-08-28T20:00:46.313Z,31.13
2022-08-28T20:03:16.312Z,30.36
2022-08-28T20:05:48.601Z,30.16
2022-08-28T20:08:19.805Z,30.45
2022-08-28T20:10:49.282Z,30.00
2022-08-28T20:13:21.308Z,30.04
2022-08-28T20:15:51.724Z,29.97
2022-08-28T20:18:23.931Z,29.79
2022-08-28T20:20:53.792Z,30.01
2022-08-28T20:23:23.957Z,30.32
2022-08-28T20:25:53.555Z,29.95
2022-08-28T20:28:25.572Z,29.95
2022-08-28T20:30:55.056Z,30.21
2022-08-28T20:33:24.536Z,30.15
2022-08-28T20:36:02.263Z,30.11
2022-08-28T20:38:32.375Z,30.52
2022-08-28T20:41:06.504Z,30.41
2022-08-28T20:43:38.798Z,30.66
2022-08-28T20:46:08.595Z,30.85
2022-08-28T20:48:38.182Z,30.65
2022-08-28T20:51:07.888Z,31.26
2022-08-28T20:53:38.115Z,31.24
2022-08-28T20:56:09.930Z,30.86
2022-08-28T20:58:41.971Z,31.23
2022-08-28T21:01:11.441Z,31.09
2022-08-28T21:03:41.014Z,31.54
2022-08-28T21:06:10.700Z,31.52
2022-08-28T21:08:40.173Z,31.56
2022-08-28T21:11:09.647Z,31.57
2022-08-28T21:13:41.698Z,31.91
2022-08-28T21:16:11.821Z,31.97
2022-08-28T21:18:53.838Z,31.98
2022-08-28T21:21:31.171Z,32.52
2022-08-28T21:24:01.803Z,32.13
2022-08-28T21:26:31.232Z,32.32
2022-08-28T21:29:03.281Z,31.97
2022-08-28T21:31:32.692Z,32.51
2022-08-28T21:34:03.497Z,32.72
2022-08-28T21:36:33.054Z,32.61
2022-08-28T21:39:02.511Z,32.39
2022-08-28T21:41:32.023Z,32.97
2022-08-28T21:44:04.046Z,32.93
2022-08-28T21:46:33.516Z,32.98
2022-08-28T21:49:03.047Z,33.03
2022-08-28T21:51:32.505Z,33.25
2022-08-28T21:54:02.008Z,33.15
2022-08-28T21:56:31.465Z,33.50
2022-08-28T21:59:01.198Z,33.29
2022-08-28T22:01:33.322Z,33.83
2022-08-28T22:04:02.870Z,33.71
2022-08-28T22:06:32.416Z,33.94
2022-08-28T22:09:02.310Z,34.39
2022-08-28T22:11:31.737Z,35.05
2022-08-28T22:14:01.176Z,35.50
2022-08-28T22:16:33.233Z,37.64
2022-08-28T22:19:03.886Z,36.99
2022-08-28T22:21:45.923Z,36.53
2022-08-28T22:24:16.065Z,38.50
2022-08-28T22:26:46.006Z,37.78
2022-08-28T22:29:15.461Z,36.86
2022-08-28T22:31:47.714Z,36.13
2022-08-28T22:34:17.544Z,35.89
2022-08-28T22:36:47.087Z,35.72
2022-08-28T22:39:16.561Z,35.98
2022-08-28T22:41:46.161Z,35.69
2022-08-28T22:44:15.604Z,35.83
2022-08-28T22:46:47.620Z,35.68
2022-08-28T22:49:17.077Z,35.88
2022-08-28T22:51:46.558Z,35.72
2022-08-28T22:54:16.160Z,35.46
2022-08-28T22:56:45.635Z,35.51
2022-08-28T22:59:15.078Z,35.95
2022-08-28T23:01:47.097Z,35.46
2022-08-28T23:04:16.573Z,35.54
2022-08-28T23:06:46.044Z,35.70
2022-08-28T23:09:15.478Z,35.58
2022-08-28T23:11:44.912Z,35.80
2022-08-28T23:14:14.893Z,35.95
2022-08-28T23:16:46.964Z,35.98
2022-08-28T23:19:18.931Z,35.77
2022-08-28T23:21:48.592Z,36.34
2022-08-28T23:24:18.285Z,36.15
2022-08-28T23:26:47.881Z,36.33
2022-08-28T23:29:17.533Z,36.54
2022-08-28T23:31:49.680Z,36.39
2022-08-28T23:34:19.165Z,36.01
2022-08-28T23:36:48.620Z,36.35
2022-08-28T23:39:18.129Z,35.71
2022-08-28T23:41:47.542Z,36.26
2022-08-28T23:44:17.073Z,36.12
2022-08-28T23:46:49.185Z,36.60
2022-08-28T23:49:21.594Z,36.83
2022-08-28T23:51:54.341Z,36.64
2022-08-28T23:54:23.795Z,36.70
2022-08-28T23:56:54.196Z,37.27
2022-08-28T23:59:24.862Z,37.18
